Terminal Aerodrome Forecast
Issued by NWS Albany, NY

Home | Current Version | Previous Version | Text Only | Print | Product List | Glossary On
Versions: 1 2 3 4 5 6 7 8 9 10 11 12 13 14 15 16 17
000
FTUS41 KALY 020532
TAFPOU
TAF
KPOU 020532Z 0206/0306 VRB02KT 6SM BR VCSH SCT025 OVC050
      TEMPO 0206/0208 4SM -SHSN BR BKN025 OVC040
     FM020800 VRB02KT P6SM VCSH SCT025 OVC040
     FM021300 28008KT P6SM OVC040
     FM021600 29012G20KT P6SM BKN050
     FM030100 30007KT P6SM FEW050=

USA.gov is the U.S. government's official web portal to all federal, state and local government web resources and services.